createdAt,value
2023-03-01T00:01:40.984Z,17.17
2023-03-01T00:04:07.943Z,17.88
2023-03-01T00:06:34.859Z,17.85
2023-03-01T00:09:01.659Z,19.38
2023-03-01T00:11:33.065Z,18.27
2023-03-01T00:14:02.506Z,17.92
2023-03-01T00:16:40.527Z,17.48
2023-03-01T00:19:13.298Z,16.17
2023-03-01T00:21:40.972Z,19.13
2023-03-01T00:24:09.093Z,16.63
2023-03-01T00:26:36.140Z,18.65
2023-03-01T00:29:03.131Z,16.17
2023-03-01T00:31:33.651Z,17.35
2023-03-01T00:34:04.684Z,18.35
2023-03-01T00:36:36.664Z,18.05
2023-03-01T00:39:06.281Z,15.52
2023-03-01T00:41:34.942Z,16.40
2023-03-01T00:44:01.798Z,20.27
2023-03-01T00:46:31.372Z,16.88
2023-03-01T00:48:59.032Z,16.03
2023-03-01T00:51:28.625Z,16.10
2023-03-01T00:53:58.552Z,20.30
2023-03-01T00:56:26.208Z,18.90
2023-03-01T00:58:53.077Z,18.27
2023-03-01T01:01:28.243Z,16.83
2023-03-01T01:04:09.500Z,17.60
2023-03-01T01:06:43.549Z,16.08
2023-03-01T01:09:17.946Z,17.77
2023-03-01T01:11:50.922Z,17.67
2023-03-01T01:14:19.595Z,16.70
2023-03-01T01:16:46.530Z,17.40
2023-03-01T01:19:14.472Z,18.73
2023-03-01T01:21:44.197Z,18.98
2023-03-01T01:24:12.387Z,19.83
2023-03-01T01:26:39.286Z,17.02
2023-03-01T01:29:07.064Z,14.15
2023-03-01T01:31:35.911Z,17.52
2023-03-01T01:34:05.828Z,17.05
2023-03-01T01:36:33.968Z,16.87
2023-03-01T01:39:01.599Z,16.42
2023-03-01T01:41:30.125Z,20.73
2023-03-01T01:44:27.895Z,15.85
2023-03-01T01:46:59.262Z,13.18
2023-03-01T01:49:34.943Z,18.35
2023-03-01T01:52:19.168Z,15.57
2023-03-01T01:54:54.462Z,15.82
2023-03-01T01:57:28.413Z,16.45
2023-03-01T02:00:01.345Z,16.75
2023-03-01T02:02:28.594Z,15.20
2023-03-01T02:05:11.422Z,18.85
2023-03-01T02:07:41.388Z,16.15
2023-03-01T02:10:09.449Z,17.08
2023-03-01T02:12:38.869Z,19.42
2023-03-01T02:15:06.759Z,16.75
2023-03-01T02:17:34.777Z,16.45
2023-03-01T02:20:13.735Z,20.02
2023-03-01T02:22:41.199Z,19.05
2023-03-01T02:25:19.522Z,18.38
2023-03-01T02:28:16.821Z,15.43
2023-03-01T02:31:09.241Z,16.92
2023-03-01T02:33:39.743Z,15.65
2023-03-01T02:36:14.930Z,19.00
2023-03-01T02:38:43.721Z,15.10
2023-03-01T02:41:16.051Z,18.80
2023-03-01T02:43:43.312Z,16.75
2023-03-01T02:46:19.057Z,20.02
2023-03-01T02:49:23.645Z,17.95
2023-03-01T02:52:29.870Z,17.17
2023-03-01T02:55:12.878Z,16.35
2023-03-01T02:57:45.881Z,15.90
2023-03-01T03:00:22.755Z,15.63
2023-03-01T03:02:53.047Z,16.80
2023-03-01T03:05:29.935Z,20.02
2023-03-01T03:07:57.744Z,15.98
2023-03-01T03:10:32.370Z,16.17
2023-03-01T03:13:04.094Z,15.38
2023-03-01T03:15:31.317Z,17.20
2023-03-01T03:18:00.074Z,15.93
2023-03-01T03:20:29.411Z,16.90
2023-03-01T03:22:59.677Z,15.88
2023-03-01T03:25:29.375Z,17.63
2023-03-01T03:27:57.918Z,16.40
2023-03-01T03:30:33.777Z,17.10
2023-03-01T03:33:01.037Z,19.10
2023-03-01T03:35:32.679Z,17.60
2023-03-01T03:38:04.859Z,19.33
2023-03-01T03:40:38.798Z,16.58
2023-03-01T03:43:15.853Z,17.35
2023-03-01T03:45:45.328Z,16.98
2023-03-01T03:48:12.257Z,17.88
2023-03-01T03:50:40.980Z,19.15
2023-03-01T03:53:12.699Z,18.20
2023-03-01T03:55:40.416Z,18.05
2023-03-01T03:58:11.254Z,17.75
2023-03-01T04:03:08.153Z,13.75
2023-03-01T04:05:36.892Z,16.35
2023-03-01T04:08:04.635Z,19.83
2023-03-01T04:10:36.744Z,19.30
2023-03-01T04:13:04.592Z,20.25
2023-03-01T04:15:33.372Z,17.45
2023-03-01T04:18:00.734Z,19.38
2023-03-01T04:20:31.679Z,16.75
2023-03-01T04:23:09.515Z,18.50
2023-03-01T04:25:36.360Z,18.42
2023-03-01T04:28:03.294Z,20.15
2023-03-01T04:30:30.203Z,19.40
2023-03-01T04:32:57.033Z,17.33
2023-03-01T04:35:23.932Z,17.30
2023-03-01T04:37:50.940Z,18.98
2023-03-01T04:40:18.123Z,19.27
2023-03-01T04:42:44.954Z,19.55
2023-03-01T04:45:15.015Z,18.52
2023-03-01T04:47:45.174Z,17.70
2023-03-01T04:50:15.397Z,17.60
2023-03-01T04:52:42.510Z,18.80
2023-03-01T04:55:10.437Z,17.60
2023-03-01T04:57:37.440Z,19.13
2023-03-01T05:00:20.928Z,19.25
2023-03-01T05:03:01.403Z,19.08
2023-03-01T05:05:35.041Z,20.35
2023-03-01T05:08:05.618Z,18.35
2023-03-01T05:10:36.233Z,19.80
2023-03-01T05:13:04.928Z,17.35
2023-03-01T05:15:32.780Z,16.25
2023-03-01T05:18:01.154Z,19.27
2023-03-01T05:20:31.999Z,17.63
2023-03-01T05:23:01.063Z,18.92
2023-03-01T05:25:33.965Z,16.88
2023-03-01T05:28:05.341Z,19.50
2023-03-01T05:30:34.248Z,17.38
2023-03-01T05:33:02.112Z,20.92
2023-03-01T05:35:30.670Z,17.63
2023-03-01T05:37:57.602Z,19.33
2023-03-01T05:40:25.705Z,19.60
2023-03-01T05:42:57.534Z,19.67
2023-03-01T05:45:27.377Z,20.92
2023-03-01T05:47:56.060Z,18.80
2023-03-01T05:50:33.256Z,19.95
2023-03-01T05:53:06.784Z,19.83
2023-03-01T05:55:33.980Z,17.45
2023-03-01T05:58:07.170Z,21.25
2023-03-01T06:00:34.550Z,19.77
2023-03-01T06:03:02.288Z,19.52
2023-03-01T06:05:29.907Z,19.70
2023-03-01T06:08:00.250Z,22.50
2023-03-01T06:10:27.196Z,18.67
2023-03-01T06:12:55.120Z,19.83
2023-03-01T06:15:23.122Z,20.60
2023-03-01T06:17:50.500Z,22.70
2023-03-01T06:20:20.191Z,19.77
2023-03-01T06:22:48.831Z,22.55
2023-03-01T06:25:19.821Z,18.15
2023-03-01T06:27:47.845Z,18.67
2023-03-01T06:30:18.134Z,19.35
2023-03-01T06:32:45.106Z,20.48
2023-03-01T06:35:14.468Z,22.17
2023-03-01T06:37:42.504Z,21.10
2023-03-01T06:40:12.691Z,22.65
2023-03-01T06:42:43.039Z,18.58
2023-03-01T06:45:11.047Z,18.10
2023-03-01T06:47:37.956Z,20.88
2023-03-01T06:50:05.223Z,18.08
2023-03-01T06:52:32.607Z,19.27
2023-03-01T06:55:00.114Z,19.45
2023-03-01T06:57:27.550Z,18.77
2023-03-01T06:59:54.443Z,23.55
2023-03-01T07:02:21.348Z,18.80
2023-03-01T07:04:51.569Z,21.67
2023-03-01T07:07:19.559Z,20.67
2023-03-01T07:09:49.112Z,19.48
2023-03-01T07:12:16.653Z,21.33
2023-03-01T07:14:45.322Z,18.63
2023-03-01T07:17:12.302Z,19.73
2023-03-01T07:19:39.202Z,21.77
2023-03-01T07:22:08.785Z,19.98
2023-03-01T07:24:35.780Z,21.77
2023-03-01T07:27:02.653Z,22.13
2023-03-01T07:29:29.867Z,18.88
2023-03-01T07:31:56.841Z,22.35
2023-03-01T07:34:23.825Z,24.08
2023-03-01T07:36:50.745Z,19.38
2023-03-01T07:39:19.633Z,20.40
2023-03-01T07:41:46.880Z,21.52
2023-03-01T07:44:13.804Z,23.73
2023-03-01T07:46:40.644Z,20.63
2023-03-01T07:49:07.550Z,19.10
2023-03-01T07:51:34.460Z,24.45
2023-03-01T07:54:01.506Z,20.67
2023-03-01T07:56:28.415Z,20.75
2023-03-01T07:58:55.317Z,23.73
2023-03-01T08:01:23.177Z,23.52
2023-03-01T08:03:50.009Z,24.17
2023-03-01T08:06:18.575Z,19.65
2023-03-01T08:08:46.660Z,36.25
2023-03-01T08:11:16.485Z,20.40
2023-03-01T08:13:44.688Z,22.13
2023-03-01T08:16:15.426Z,24.60
2023-03-01T08:18:44.055Z,21.92
2023-03-01T08:21:14.671Z,21.23
2023-03-01T08:23:43.036Z,20.00
2023-03-01T08:26:29.660Z,20.17
2023-03-01T08:28:57.262Z,23.95
2023-03-01T08:31:33.132Z,21.63
2023-03-01T08:34:03.454Z,21.02
2023-03-01T08:36:35.976Z,23.80
2023-03-01T08:39:03.701Z,21.20
2023-03-01T08:41:31.416Z,23.63
2023-03-01T08:44:01.683Z,22.65
2023-03-01T08:46:41.569Z,22.25
2023-03-01T08:49:13.538Z,23.75
2023-03-01T08:51:41.623Z,22.38
2023-03-01T08:54:15.820Z,21.40
2023-03-01T08:56:43.500Z,18.30
2023-03-01T08:59:12.567Z,20.75
2023-03-01T09:01:41.128Z,20.25
2023-03-01T09:06:36.083Z,23.83
2023-03-01T09:09:05.923Z,20.50
2023-03-01T09:11:34.159Z,23.93
2023-03-01T09:14:01.189Z,20.60
2023-03-01T09:16:28.308Z,21.88
2023-03-01T09:18:56.153Z,20.10
2023-03-01T09:21:39.476Z,24.70
2023-03-01T09:24:14.672Z,19.67
2023-03-01T09:26:41.699Z,21.33
2023-03-01T09:29:10.505Z,22.65
2023-03-01T09:31:37.632Z,25.58
2023-03-01T09:34:04.851Z,24.20
2023-03-01T09:36:32.842Z,21.15
2023-03-01T09:39:01.223Z,21.27
2023-03-01T09:41:45.989Z,20.50
2023-03-01T09:44:36.048Z,19.00
2023-03-01T09:47:04.122Z,23.47
2023-03-01T09:49:49.737Z,22.42
2023-03-01T09:52:22.840Z,17.85
2023-03-01T09:54:55.643Z,21.92
2023-03-01T09:57:44.770Z,22.25
2023-03-01T10:00:23.746Z,19.58
2023-03-01T10:03:40.286Z,24.88
2023-03-01T10:06:34.555Z,24.33
2023-03-01T10:09:14.831Z,20.15
2023-03-01T10:11:55.036Z,20.73
2023-03-01T10:14:38.963Z,22.17
2023-03-01T10:17:28.887Z,19.38
2023-03-01T10:20:11.612Z,21.55
2023-03-01T10:22:38.415Z,17.48
2023-03-01T10:25:06.591Z,19.67
2023-03-01T10:27:58.233Z,20.65
2023-03-01T10:30:42.974Z,22.33
2023-03-01T10:33:22.538Z,21.33
2023-03-01T10:35:49.598Z,20.90
2023-03-01T10:38:19.195Z,25.25
2023-03-01T10:41:00.641Z,23.70
2023-03-01T10:43:46.531Z,27.90
2023-03-01T10:46:32.912Z,24.85
2023-03-01T10:49:19.118Z,21.65
2023-03-01T10:51:50.960Z,18.67
2023-03-01T10:56:58.938Z,19.80
2023-03-01T10:59:31.552Z,16.58
2023-03-01T11:02:25.973Z,16.40
2023-03-01T11:05:24.851Z,19.67
2023-03-01T11:07:56.016Z,17.88
2023-03-01T11:10:36.829Z,15.65
2023-03-01T11:13:21.800Z,16.67
2023-03-01T11:16:12.668Z,16.08
2023-03-01T11:18:48.021Z,15.38
2023-03-01T11:21:17.858Z,19.35
2023-03-01T11:23:47.902Z,17.42
2023-03-01T11:26:18.609Z,16.23
2023-03-01T11:28:52.789Z,16.58
2023-03-01T11:31:20.879Z,19.50
2023-03-01T11:34:08.978Z,22.35
2023-03-01T11:37:00.206Z,19.77
2023-03-01T11:39:39.724Z,18.17
2023-03-01T11:42:43.436Z,18.23
2023-03-01T11:45:13.717Z,21.52
2023-03-01T11:48:07.194Z,19.70
2023-03-01T11:50:42.094Z,19.80
2023-03-01T11:53:30.607Z,19.65
2023-03-01T11:56:24.195Z,19.40
2023-03-01T11:59:19.426Z,19.65
2023-03-01T12:01:49.260Z,17.98
2023-03-01T12:04:34.521Z,20.83
2023-03-01T12:07:13.014Z,18.48
2023-03-01T12:10:27.695Z,22.00
2023-03-01T12:13:54.857Z,18.95
2023-03-01T12:16:58.225Z,18.73
2023-03-01T12:20:12.076Z,19.25
2023-03-01T12:23:33.124Z,20.15
2023-03-01T12:26:37.235Z,17.70
2023-03-01T12:29:32.405Z,19.35
2023-03-01T12:32:43.296Z,20.48
2023-03-01T12:35:21.745Z,19.45
2023-03-01T12:38:14.312Z,23.17
2023-03-01T12:41:22.539Z,20.85
2023-03-01T12:44:04.172Z,21.35
2023-03-01T12:47:10.436Z,19.17
2023-03-01T12:49:50.882Z,25.20
2023-03-01T12:52:38.990Z,20.10
2023-03-01T12:55:25.842Z,22.75
2023-03-01T12:58:10.635Z,21.90
2023-03-01T13:00:52.399Z,22.48
2023-03-01T13:03:53.557Z,23.55
2023-03-01T13:06:43.731Z,22.15
2023-03-01T13:09:49.069Z,27.55
2023-03-01T13:12:50.415Z,19.92
2023-03-01T13:15:23.404Z,20.90
2023-03-01T13:18:16.520Z,21.80
2023-03-01T13:20:43.284Z,18.70
2023-03-01T13:23:28.446Z,21.23
2023-03-01T13:26:00.895Z,22.40
2023-03-01T13:28:52.118Z,18.77
2023-03-01T13:31:23.695Z,20.10
2023-03-01T13:33:51.681Z,24.05
2023-03-01T13:36:31.664Z,19.65
2023-03-01T13:39:01.908Z,21.73
2023-03-01T13:41:43.993Z,21.33
2023-03-01T13:44:28.262Z,20.77
2023-03-01T13:47:09.364Z,22.27
2023-03-01T13:50:01.249Z,23.90
2023-03-01T13:52:45.419Z,22.90
2023-03-01T13:55:15.066Z,21.83
2023-03-01T13:57:47.321Z,19.88
2023-03-01T14:00:37.777Z,21.35
2023-03-01T14:03:14.166Z,21.50
2023-03-01T14:06:13.733Z,20.42
2023-03-01T14:11:30.526Z,21.33
2023-03-01T14:14:36.926Z,22.77
2023-03-01T14:17:22.782Z,17.73
2023-03-01T14:19:58.654Z,21.35
2023-03-01T14:22:32.873Z,19.05
2023-03-01T14:25:17.714Z,20.25
2023-03-01T14:27:45.411Z,23.83
2023-03-01T14:30:32.559Z,22.88
2023-03-01T14:33:04.017Z,22.13
2023-03-01T14:35:37.570Z,19.35
2023-03-01T14:38:04.514Z,20.25
2023-03-01T14:40:36.244Z,18.30
2023-03-01T14:43:13.089Z,16.08
2023-03-01T14:45:40.187Z,17.75
2023-03-01T14:48:08.671Z,19.35
2023-03-01T14:50:43.229Z,14.98
2023-03-01T14:53:29.420Z,15.32
2023-03-01T14:56:03.272Z,14.88
2023-03-01T14:58:34.327Z,13.80
2023-03-01T15:01:04.834Z,15.57
2023-03-01T15:03:44.732Z,14.98
2023-03-01T15:06:15.802Z,16.98
2023-03-01T15:11:31.481Z,12.90
2023-03-01T15:13:59.870Z,15.98
2023-03-01T15:16:35.271Z,18.75
2023-03-01T15:19:07.363Z,14.63
2023-03-01T15:21:38.153Z,13.40
2023-03-01T15:27:07.888Z,13.15
2023-03-01T15:29:41.450Z,16.88
2023-03-01T15:32:35.718Z,13.25
2023-03-01T15:35:49.314Z,13.95
2023-03-01T15:38:55.130Z,14.07
2023-03-01T15:41:34.344Z,11.88
2023-03-01T15:44:27.923Z,13.52
2023-03-01T15:46:57.818Z,14.50
2023-03-01T15:49:53.994Z,14.20
2023-03-01T15:52:40.570Z,12.52
2023-03-01T15:55:24.644Z,12.55
2023-03-01T15:58:01.601Z,17.83
2023-03-01T16:00:29.716Z,11.15
2023-03-01T16:02:57.453Z,12.23
2023-03-01T16:05:35.931Z,13.65
2023-03-01T16:08:03.687Z,15.13
2023-03-01T16:10:32.389Z,14.00
2023-03-01T16:12:59.766Z,12.93
2023-03-01T16:15:32.632Z,13.77
2023-03-01T16:18:00.225Z,12.48
2023-03-01T16:20:32.789Z,14.70
2023-03-01T16:23:07.377Z,14.75
2023-03-01T16:25:36.794Z,14.50
2023-03-01T16:28:09.609Z,15.35
2023-03-01T16:30:40.731Z,17.48
2023-03-01T16:33:26.488Z,16.88
2023-03-01T16:35:56.871Z,17.85
2023-03-01T16:38:23.900Z,16.67
2023-03-01T16:40:53.384Z,16.38
2023-03-01T16:43:20.581Z,15.73
2023-03-01T16:45:47.631Z,16.85
2023-03-01T16:48:15.617Z,16.20
2023-03-01T16:50:42.597Z,17.52
2023-03-01T16:53:09.833Z,15.13
2023-03-01T16:55:36.806Z,15.32
2023-03-01T16:58:05.281Z,23.05
2023-03-01T17:00:32.440Z,23.33
2023-03-01T17:02:59.403Z,24.67
2023-03-01T17:06:35.054Z,24.15
2023-03-01T17:09:02.042Z,24.60
2023-03-01T17:11:29.168Z,25.85
2023-03-01T17:13:56.077Z,25.63
2023-03-01T17:16:23.555Z,28.00
2023-03-01T17:18:50.595Z,29.13
2023-03-01T17:21:17.887Z,27.95
2023-03-01T17:23:47.018Z,25.23
2023-03-01T17:26:14.246Z,32.90
2023-03-01T17:28:41.360Z,30.10
2023-03-01T17:31:08.625Z,26.48
2023-03-01T17:33:36.093Z,27.38
2023-03-01T17:36:03.335Z,25.98
2023-03-01T17:38:30.539Z,23.85
2023-03-01T17:41:01.079Z,27.35
2023-03-01T17:46:32.029Z,27.73
2023-03-01T17:48:58.952Z,27.83
2023-03-01T17:51:25.956Z,28.70
2023-03-01T17:53:52.936Z,29.15
2023-03-01T17:56:19.784Z,34.40
2023-03-01T17:58:46.908Z,34.88
2023-03-01T18:01:20.036Z,31.77
2023-03-01T18:03:47.794Z,36.75
2023-03-01T18:06:22.020Z,32.08
2023-03-01T18:08:50.709Z,30.00
2023-03-01T18:11:19.004Z,31.42
2023-03-01T18:14:10.945Z,29.77
2023-03-01T18:16:39.813Z,29.55
2023-03-01T18:19:06.839Z,27.98
2023-03-01T18:21:34.177Z,30.83
2023-03-01T18:24:01.821Z,39.67
2023-03-01T18:26:29.732Z,28.00
2023-03-01T18:29:00.948Z,27.60
2023-03-01T18:31:32.517Z,30.08
2023-03-01T18:34:01.224Z,30.45
2023-03-01T18:36:32.727Z,29.77
2023-03-01T18:39:02.249Z,28.70
2023-03-01T18:41:30.040Z,29.33
2023-03-01T18:43:57.511Z,38.17
2023-03-01T18:46:25.159Z,37.13
2023-03-01T18:48:53.695Z,35.55
2023-03-01T18:51:25.023Z,37.63
2023-03-01T18:53:52.302Z,34.40
2023-03-01T18:56:19.540Z,36.15
2023-03-01T18:58:46.471Z,33.42
2023-03-01T19:01:20.754Z,31.88
2023-03-01T19:04:21.250Z,32.58
2023-03-01T19:06:48.185Z,34.42
2023-03-01T19:09:15.632Z,32.30
2023-03-01T19:11:42.566Z,35.15
2023-03-01T19:14:53.672Z,35.75
2023-03-01T19:18:04.556Z,31.00
2023-03-01T19:20:31.527Z,31.98
2023-03-01T19:22:58.393Z,33.40
2023-03-01T19:25:29.709Z,36.08
2023-03-01T19:28:15.240Z,36.17
2023-03-01T19:30:52.892Z,34.25
2023-03-01T19:34:12.520Z,39.90
2023-03-01T19:36:44.221Z,34.35
2023-03-01T19:41:59.209Z,36.88
2023-03-01T19:44:26.165Z,37.55
2023-03-01T19:47:12.591Z,35.05
2023-03-01T19:49:41.605Z,36.00
2023-03-01T19:55:58.144Z,35.28
2023-03-01T20:01:21.913Z,38.40
2023-03-01T20:11:44.483Z,33.15
2023-03-01T20:14:12.376Z,31.80
2023-03-01T20:16:40.212Z,36.17
2023-03-01T20:19:07.342Z,32.92
2023-03-01T20:21:36.247Z,34.55
2023-03-01T20:24:03.120Z,35.67
2023-03-01T20:26:30.427Z,37.95
2023-03-01T20:29:26.666Z,34.30
2023-03-01T20:32:36.870Z,31.50
2023-03-01T20:37:56.216Z,31.70
2023-03-01T20:40:37.194Z,32.03
2023-03-01T20:43:05.376Z,31.23
2023-03-01T20:45:32.478Z,34.70
2023-03-01T20:47:59.416Z,33.15
2023-03-01T20:50:26.373Z,36.17
2023-03-01T20:52:53.247Z,35.55
2023-03-01T20:55:20.150Z,36.65
2023-03-01T20:57:47.012Z,31.70
2023-03-01T21:00:14.546Z,33.00
2023-03-01T21:02:41.509Z,27.30
2023-03-01T21:05:09.062Z,27.42
2023-03-01T21:07:36.087Z,26.65
2023-03-01T21:10:03.487Z,30.52
2023-03-01T21:12:31.323Z,30.88
2023-03-01T21:14:58.182Z,29.92
2023-03-01T21:17:25.063Z,26.42
2023-03-01T21:19:51.925Z,28.05
2023-03-01T21:22:18.834Z,27.17
2023-03-01T21:24:45.784Z,28.33
2023-03-01T21:27:12.648Z,26.50
2023-03-01T21:29:43.164Z,27.98
2023-03-01T21:32:12.355Z,33.78
2023-03-01T21:34:41.253Z,25.88
2023-03-01T21:37:10.421Z,26.48
2023-03-01T21:39:37.970Z,23.38
2023-03-01T21:42:06.072Z,22.52
2023-03-01T21:44:34.056Z,20.65
2023-03-01T21:47:00.959Z,23.73
2023-03-01T21:49:28.014Z,21.95
2023-03-01T21:51:55.584Z,22.55
2023-03-01T21:54:22.671Z,23.17
2023-03-01T21:56:50.852Z,23.92
2023-03-01T21:59:22.412Z,22.30
2023-03-01T22:01:51.743Z,27.52
2023-03-01T22:04:20.074Z,26.05
2023-03-01T22:06:47.451Z,22.13
2023-03-01T22:09:15.880Z,22.27
2023-03-01T22:11:53.932Z,22.08
2023-03-01T22:14:21.365Z,19.50
2023-03-01T22:16:51.384Z,19.38
2023-03-01T22:19:19.405Z,19.60
2023-03-01T22:21:49.952Z,20.20
2023-03-01T22:24:20.773Z,17.73
2023-03-01T22:29:36.273Z,14.32
2023-03-01T22:32:03.277Z,18.70
2023-03-01T22:34:30.662Z,18.73
2023-03-01T22:36:58.580Z,19.52
2023-03-01T22:39:25.476Z,22.52
2023-03-01T22:41:54.637Z,16.17
2023-03-01T22:44:23.630Z,17.65
2023-03-01T22:46:51.263Z,18.17
2023-03-01T22:49:19.460Z,17.80
2023-03-01T22:51:49.637Z,16.35
2023-03-01T22:54:18.687Z,17.20
2023-03-01T22:56:46.469Z,18.70
2023-03-01T22:59:19.051Z,17.45
2023-03-01T23:01:48.163Z,18.52
2023-03-01T23:04:16.800Z,21.90
2023-03-01T23:06:55.630Z,19.48
2023-03-01T23:09:32.679Z,19.98
2023-03-01T23:12:01.958Z,21.15
2023-03-01T23:14:32.172Z,17.25
2023-03-01T23:17:02.528Z,17.48
2023-03-01T23:19:30.148Z,21.30
2023-03-01T23:21:57.824Z,17.88
2023-03-01T23:24:31.116Z,15.77
2023-03-01T23:27:00.651Z,21.38
2023-03-01T23:29:27.553Z,17.90
2023-03-01T23:31:58.498Z,17.77
2023-03-01T23:34:27.335Z,19.63
2023-03-01T23:36:55.428Z,19.73
2023-03-01T23:39:22.462Z,19.70
2023-03-01T23:41:49.476Z,19.08
2023-03-01T23:44:19.810Z,23.83
2023-03-01T23:46:48.379Z,20.50
2023-03-01T23:49:19.056Z,21.80
2023-03-01T23:54:19.143Z,17.20
2023-03-01T23:56:46.787Z,21.25
2023-03-01T23:59:17.770Z,22.33
